sensor_id;sensor_type;location;lat;lon;timestamp;P1;durP1;ratioP1;P2;durP2;ratioP2
71763;SDS011;59602;52.142;5.408;2022-11-23T00:01:36;9.15;;;3.83;;
71763;SDS011;59602;52.142;5.408;2022-11-23T00:04:04;7.20;;;4.13;;
71763;SDS011;59602;52.142;5.408;2022-11-23T00:06:33;14.87;;;5.10;;
71763;SDS011;59602;52.142;5.408;2022-11-23T00:09:02;11.13;;;4.43;;
71763;SDS011;59602;52.142;5.408;2022-11-23T00:11:29;12.27;;;5.10;;
71763;SDS011;59602;52.142;5.408;2022-11-23T00:13:56;10.80;;;5.13;;
71763;SDS011;59602;52.142;5.408;2022-11-23T00:16:24;14.38;;;5.25;;
71763;SDS011;59602;52.142;5.408;2022-11-23T00:18:54;11.87;;;5.70;;
71763;SDS011;59602;52.142;5.408;2022-11-23T00:21:23;13.93;;;6.07;;
71763;SDS011;59602;52.142;5.408;2022-11-23T00:23:54;12.10;;;5.85;;
71763;SDS011;59602;52.142;5.408;2022-11-23T00:26:22;13.52;;;6.07;;
71763;SDS011;59602;52.142;5.408;2022-11-23T00:28:48;16.15;;;6.45;;
71763;SDS011;59602;52.142;5.408;2022-11-23T00:31:18;14.60;;;5.93;;
71763;SDS011;59602;52.142;5.408;2022-11-23T00:33:47;13.98;;;5.82;;
71763;SDS011;59602;52.142;5.408;2022-11-23T00:36:39;15.30;;;6.28;;
71763;SDS011;59602;52.142;5.408;2022-11-23T00:39:06;15.45;;;7.00;;
71763;SDS011;59602;52.142;5.408;2022-11-23T00:41:32;13.40;;;6.32;;
71763;SDS011;59602;52.142;5.408;2022-11-23T00:43:59;13.57;;;6.07;;
71763;SDS011;59602;52.142;5.408;2022-11-23T00:46:26;15.57;;;6.65;;
71763;SDS011;59602;52.142;5.408;2022-11-23T00:48:54;16.65;;;7.13;;
71763;SDS011;59602;52.142;5.408;2022-11-23T00:51:23;17.50;;;7.45;;
71763;SDS011;59602;52.142;5.408;2022-11-23T00:53:53;17.65;;;7.40;;
71763;SDS011;59602;52.142;5.408;2022-11-23T00:56:20;15.23;;;7.10;;
71763;SDS011;59602;52.142;5.408;2022-11-23T00:58:47;15.73;;;8.07;;
71763;SDS011;59602;52.142;5.408;2022-11-23T01:01:15;13.57;;;7.60;;
71763;SDS011;59602;52.142;5.408;2022-11-23T01:03:46;18.10;;;7.50;;
71763;SDS011;59602;52.142;5.408;2022-11-23T01:06:15;15.38;;;7.47;;
71763;SDS011;59602;52.142;5.408;2022-11-23T01:08:50;19.57;;;8.47;;
71763;SDS011;59602;52.142;5.408;2022-11-23T01:11:19;18.75;;;8.07;;
71763;SDS011;59602;52.142;5.408;2022-11-23T01:13:47;17.95;;;7.43;;
71763;SDS011;59602;52.142;5.408;2022-11-23T01:16:16;17.10;;;8.02;;
71763;SDS011;59602;52.142;5.408;2022-11-23T01:18:51;16.98;;;7.40;;
71763;SDS011;59602;52.142;5.408;2022-11-23T01:21:18;17.23;;;7.37;;
71763;SDS011;59602;52.142;5.408;2022-11-23T02:52:10;8.53;;;3.50;;
71763;SDS011;59602;52.142;5.408;2022-11-23T02:55:01;9.80;;;3.67;;
71763;SDS011;59602;52.142;5.408;2022-11-23T02:57:43;8.75;;;3.80;;
71763;SDS011;59602;52.142;5.408;2022-11-23T03:00:11;11.02;;;4.45;;
71763;SDS011;59602;52.142;5.408;2022-11-23T03:02:38;11.40;;;4.80;;
71763;SDS011;59602;52.142;5.408;2022-11-23T03:05:27;11.87;;;4.17;;
71763;SDS011;59602;52.142;5.408;2022-11-23T03:07:55;10.77;;;4.50;;
71763;SDS011;59602;52.142;5.408;2022-11-23T03:10:23;11.30;;;4.47;;
71763;SDS011;59602;52.142;5.408;2022-11-23T03:12:53;10.23;;;4.40;;
71763;SDS011;59602;52.142;5.408;2022-11-23T03:15:25;10.30;;;4.13;;
71763;SDS011;59602;52.142;5.408;2022-11-23T03:17:57;7.97;;;4.07;;
71763;SDS011;59602;52.142;5.408;2022-11-23T03:20:28;9.48;;;4.28;;
71763;SDS011;59602;52.142;5.408;2022-11-23T03:23:16;10.30;;;3.83;;
71763;SDS011;59602;52.142;5.408;2022-11-23T03:25:43;12.32;;;3.85;;
71763;SDS011;59602;52.142;5.408;2022-11-23T03:28:11;10.32;;;3.33;;
71763;SDS011;59602;52.142;5.408;2022-11-23T03:30:41;7.90;;;3.30;;
71763;SDS011;59602;52.142;5.408;2022-11-23T03:33:11;11.68;;;4.15;;
71763;SDS011;59602;52.142;5.408;2022-11-23T03:36:03;9.32;;;3.53;;
71763;SDS011;59602;52.142;5.408;2022-11-23T03:38:32;8.85;;;3.33;;
71763;SDS011;59602;52.142;5.408;2022-11-23T03:41:01;11.25;;;3.38;;
71763;SDS011;59602;52.142;5.408;2022-11-23T03:43:32;9.67;;;4.17;;
71763;SDS011;59602;52.142;5.408;2022-11-23T03:46:24;7.10;;;3.35;;
71763;SDS011;59602;52.142;5.408;2022-11-23T03:49:16;11.25;;;3.22;;
71763;SDS011;59602;52.142;5.408;2022-11-23T03:51:46;9.32;;;3.53;;
71763;SDS011;59602;52.142;5.408;2022-11-23T03:54:29;6.30;;;2.85;;
71763;SDS011;59602;52.142;5.408;2022-11-23T03:57:03;8.77;;;3.03;;
71763;SDS011;59602;52.142;5.408;2022-11-23T03:59:32;9.02;;;3.22;;
71763;SDS011;59602;52.142;5.408;2022-11-23T04:02:03;7.75;;;3.20;;
71763;SDS011;59602;52.142;5.408;2022-11-23T04:04:55;10.35;;;2.95;;
71763;SDS011;59602;52.142;5.408;2022-11-23T04:07:44;9.55;;;3.00;;
71763;SDS011;59602;52.142;5.408;2022-11-23T04:10:14;9.20;;;2.90;;
71763;SDS011;59602;52.142;5.408;2022-11-23T04:13:04;6.40;;;2.50;;
71763;SDS011;59602;52.142;5.408;2022-11-23T04:15:33;10.07;;;3.03;;
71763;SDS011;59602;52.142;5.408;2022-11-23T04:18:00;8.80;;;2.97;;
71763;SDS011;59602;52.142;5.408;2022-11-23T04:20:31;8.65;;;2.45;;
71763;SDS011;59602;52.142;5.408;2022-11-23T04:23:25;5.17;;;2.40;;
71763;SDS011;59602;52.142;5.408;2022-11-23T04:25:52;5.47;;;2.08;;
71763;SDS011;59602;52.142;5.408;2022-11-23T04:28:45;9.90;;;2.20;;
71763;SDS011;59602;52.142;5.408;2022-11-23T04:31:35;8.85;;;2.75;;
71763;SDS011;59602;52.142;5.408;2022-11-23T04:34:16;9.48;;;2.05;;
71763;SDS011;59602;52.142;5.408;2022-11-23T04:36:46;7.27;;;2.23;;
71763;SDS011;59602;52.142;5.408;2022-11-23T04:39:13;5.72;;;2.90;;
71763;SDS011;59602;52.142;5.408;2022-11-23T04:41:58;4.28;;;2.05;;
71763;SDS011;59602;52.142;5.408;2022-11-23T04:44:49;4.82;;;2.10;;
71763;SDS011;59602;52.142;5.408;2022-11-23T04:47:18;7.18;;;1.95;;
71763;SDS011;59602;52.142;5.408;2022-11-23T04:49:47;6.33;;;1.90;;
71763;SDS011;59602;52.142;5.408;2022-11-23T04:52:36;7.88;;;1.98;;
71763;SDS011;59602;52.142;5.408;2022-11-23T04:55:06;8.18;;;1.92;;
71763;SDS011;59602;52.142;5.408;2022-11-23T04:58:08;7.30;;;2.10;;
71763;SDS011;59602;52.142;5.408;2022-11-23T05:00:52;7.95;;;1.80;;
71763;SDS011;59602;52.142;5.408;2022-11-23T05:03:21;7.50;;;1.90;;
71763;SDS011;59602;52.142;5.408;2022-11-23T05:05:51;8.20;;;2.05;;
71763;SDS011;59602;52.142;5.408;2022-11-23T05:08:41;7.40;;;2.22;;
71763;SDS011;59602;52.142;5.408;2022-11-23T05:11:11;5.10;;;2.15;;
71763;SDS011;59602;52.142;5.408;2022-11-23T05:14:02;5.63;;;1.88;;
71763;SDS011;59602;52.142;5.408;2022-11-23T05:16:29;7.13;;;1.80;;
71763;SDS011;59602;52.142;5.408;2022-11-23T05:18:56;7.80;;;2.13;;
71763;SDS011;59602;52.142;5.408;2022-11-23T05:21:43;8.60;;;2.47;;
71763;SDS011;59602;52.142;5.408;2022-11-23T05:24:42;6.55;;;1.88;;
71763;SDS011;59602;52.142;5.408;2022-11-23T05:27:49;6.03;;;1.70;;
71763;SDS011;59602;52.142;5.408;2022-11-23T05:30:52;8.03;;;1.53;;
71763;SDS011;59602;52.142;5.408;2022-11-23T05:33:24;6.32;;;1.73;;
71763;SDS011;59602;52.142;5.408;2022-11-23T05:35:52;6.38;;;1.90;;
71763;SDS011;59602;52.142;5.408;2022-11-23T05:38:21;7.13;;;1.58;;
71763;SDS011;59602;52.142;5.408;2022-11-23T05:41:23;6.38;;;2.08;;
71763;SDS011;59602;52.142;5.408;2022-11-23T05:44:14;7.47;;;1.90;;
71763;SDS011;59602;52.142;5.408;2022-11-23T05:47:09;6.07;;;1.58;;
71763;SDS011;59602;52.142;5.408;2022-11-23T05:49:56;12.20;;;1.73;;
71763;SDS011;59602;52.142;5.408;2022-11-23T05:52:24;6.47;;;1.55;;
71763;SDS011;59602;52.142;5.408;2022-11-23T05:55:08;5.50;;;1.80;;
71763;SDS011;59602;52.142;5.408;2022-11-23T05:57:56;13.33;;;2.17;;
71763;SDS011;59602;52.142;5.408;2022-11-23T06:00:23;7.78;;;1.67;;
71763;SDS011;59602;52.142;5.408;2022-11-23T06:02:50;6.78;;;1.98;;
71763;SDS011;59602;52.142;5.408;2022-11-23T06:05:19;5.90;;;1.58;;
71763;SDS011;59602;52.142;5.408;2022-11-23T06:07:46;5.78;;;2.25;;
71763;SDS011;59602;52.142;5.408;2022-11-23T06:10:18;9.87;;;2.10;;
71763;SDS011;59602;52.142;5.408;2022-11-23T06:12:45;6.75;;;1.80;;
71763;SDS011;59602;52.142;5.408;2022-11-23T06:15:27;5.75;;;1.90;;
71763;SDS011;59602;52.142;5.408;2022-11-23T06:18:17;7.60;;;1.95;;
71763;SDS011;59602;52.142;5.408;2022-11-23T06:20:46;6.90;;;1.60;;
71763;SDS011;59602;52.142;5.408;2022-11-23T06:26:06;7.47;;;1.40;;
71763;SDS011;59602;52.142;5.408;2022-11-23T06:28:49;5.35;;;1.60;;
71763;SDS011;59602;52.142;5.408;2022-11-23T06:31:15;5.47;;;1.60;;
71763;SDS011;59602;52.142;5.408;2022-11-23T06:34:00;6.47;;;1.73;;
71763;SDS011;59602;52.142;5.408;2022-11-23T06:36:28;5.40;;;1.37;;
71763;SDS011;59602;52.142;5.408;2022-11-23T06:38:54;6.88;;;1.15;;
71763;SDS011;59602;52.142;5.408;2022-11-23T06:41:24;9.13;;;1.17;;
71763;SDS011;59602;52.142;5.408;2022-11-23T06:43:57;5.97;;;1.30;;
71763;SDS011;59602;52.142;5.408;2022-11-23T06:46:25;4.40;;;0.80;;
71763;SDS011;59602;52.142;5.408;2022-11-23T06:49:01;5.47;;;1.43;;
71763;SDS011;59602;52.142;5.408;2022-11-23T06:51:27;5.50;;;1.02;;
71763;SDS011;59602;52.142;5.408;2022-11-23T06:53:54;9.23;;;1.25;;
71763;SDS011;59602;52.142;5.408;2022-11-23T06:56:21;7.38;;;1.10;;
71763;SDS011;59602;52.142;5.408;2022-11-23T06:58:47;6.15;;;0.90;;
71763;SDS011;59602;52.142;5.408;2022-11-23T07:01:14;6.77;;;0.93;;
71763;SDS011;59602;52.142;5.408;2022-11-23T07:03:40;5.68;;;0.82;;
71763;SDS011;59602;52.142;5.408;2022-11-23T07:06:08;7.18;;;0.90;;
71763;SDS011;59602;52.142;5.408;2022-11-23T07:08:35;10.35;;;0.80;;
71763;SDS011;59602;52.142;5.408;2022-11-23T07:11:08;5.28;;;0.82;;
71763;SDS011;59602;52.142;5.408;2022-11-23T07:13:37;5.33;;;0.70;;
71763;SDS011;59602;52.142;5.408;2022-11-23T07:16:04;4.18;;;0.90;;
71763;SDS011;59602;52.142;5.408;2022-11-23T07:18:31;5.93;;;0.70;;
71763;SDS011;59602;52.142;5.408;2022-11-23T07:20:58;5.05;;;0.63;;
71763;SDS011;59602;52.142;5.408;2022-11-23T07:23:58;7.53;;;0.90;;
71763;SDS011;59602;52.142;5.408;2022-11-23T07:26:57;7.70;;;0.60;;
71763;SDS011;59602;52.142;5.408;2022-11-23T07:29:23;5.55;;;1.00;;
71763;SDS011;59602;52.142;5.408;2022-11-23T07:31:52;7.20;;;0.50;;
71763;SDS011;59602;52.142;5.408;2022-11-23T07:34:19;5.97;;;0.93;;
71763;SDS011;59602;52.142;5.408;2022-11-23T07:36:46;7.57;;;0.57;;
71763;SDS011;59602;52.142;5.408;2022-11-23T07:39:13;3.30;;;0.50;;
71763;SDS011;59602;52.142;5.408;2022-11-23T07:41:39;7.28;;;0.57;;
71763;SDS011;59602;52.142;5.408;2022-11-23T07:44:06;5.60;;;0.80;;
71763;SDS011;59602;52.142;5.408;2022-11-23T07:46:32;6.63;;;0.38;;
71763;SDS011;59602;52.142;5.408;2022-11-23T07:48:59;4.95;;;0.40;;
71763;SDS011;59602;52.142;5.408;2022-11-23T07:51:28;8.80;;;0.43;;
71763;SDS011;59602;52.142;5.408;2022-11-23T07:53:54;9.45;;;0.45;;
71763;SDS011;59602;52.142;5.408;2022-11-23T07:56:21;7.10;;;0.35;;
71763;SDS011;59602;52.142;5.408;2022-11-23T07:58:47;5.80;;;0.60;;
71763;SDS011;59602;52.142;5.408;2022-11-23T08:01:15;4.40;;;0.45;;
71763;SDS011;59602;52.142;5.408;2022-11-23T08:03:44;5.77;;;0.43;;
71763;SDS011;59602;52.142;5.408;2022-11-23T08:06:13;8.50;;;0.40;;
71763;SDS011;59602;52.142;5.408;2022-11-23T08:08:41;4.60;;;0.38;;
71763;SDS011;59602;52.142;5.408;2022-11-23T08:11:08;10.43;;;0.70;;
71763;SDS011;59602;52.142;5.408;2022-11-23T08:13:36;10.00;;;1.10;;
71763;SDS011;59602;52.142;5.408;2022-11-23T08:16:02;6.80;;;0.70;;
71763;SDS011;59602;52.142;5.408;2022-11-23T08:18:29;8.57;;;0.50;;
71763;SDS011;59602;52.142;5.408;2022-11-23T08:20:57;8.77;;;0.40;;
71763;SDS011;59602;52.142;5.408;2022-11-23T08:23:26;7.78;;;0.50;;
71763;SDS011;59602;52.142;5.408;2022-11-23T08:25:53;5.10;;;0.80;;
71763;SDS011;59602;52.142;5.408;2022-11-23T08:28:19;10.47;;;0.60;;
71763;SDS011;59602;52.142;5.408;2022-11-23T08:30:46;10.30;;;0.57;;
71763;SDS011;59602;52.142;5.408;2022-11-23T08:33:13;6.18;;;0.20;;
71763;SDS011;59602;52.142;5.408;2022-11-23T08:35:42;8.93;;;0.43;;
71763;SDS011;59602;52.142;5.408;2022-11-23T08:38:09;9.68;;;0.47;;
71763;SDS011;59602;52.142;5.408;2022-11-23T08:40:37;6.77;;;0.50;;
71763;SDS011;59602;52.142;5.408;2022-11-23T08:43:04;4.97;;;0.65;;
71763;SDS011;59602;52.142;5.408;2022-11-23T08:45:31;5.97;;;0.60;;
71763;SDS011;59602;52.142;5.408;2022-11-23T08:47:58;6.90;;;0.40;;
71763;SDS011;59602;52.142;5.408;2022-11-23T08:50:27;6.90;;;0.40;;
71763;SDS011;59602;52.142;5.408;2022-11-23T08:52:56;10.00;;;0.70;;
71763;SDS011;59602;52.142;5.408;2022-11-23T08:55:26;6.55;;;0.70;;
71763;SDS011;59602;52.142;5.408;2022-11-23T08:57:54;7.93;;;0.75;;
71763;SDS011;59602;52.142;5.408;2022-11-23T09:00:22;6.25;;;0.40;;
71763;SDS011;59602;52.142;5.408;2022-11-23T09:02:49;7.32;;;0.60;;
71763;SDS011;59602;52.142;5.408;2022-11-23T09:05:16;5.27;;;0.30;;
71763;SDS011;59602;52.142;5.408;2022-11-23T09:07:42;6.32;;;0.45;;
71763;SDS011;59602;52.142;5.408;2022-11-23T09:10:09;8.80;;;0.52;;
71763;SDS011;59602;52.142;5.408;2022-11-23T09:12:45;6.50;;;0.50;;
71763;SDS011;59602;52.142;5.408;2022-11-23T09:15:13;6.97;;;0.55;;
71763;SDS011;59602;52.142;5.408;2022-11-23T09:17:40;8.80;;;0.63;;
71763;SDS011;59602;52.142;5.408;2022-11-23T09:20:07;7.93;;;0.88;;
71763;SDS011;59602;52.142;5.408;2022-11-23T09:22:35;9.98;;;0.63;;
71763;SDS011;59602;52.142;5.408;2022-11-23T09:25:02;6.40;;;0.30;;
71763;SDS011;59602;52.142;5.408;2022-11-23T09:27:29;5.28;;;0.55;;
71763;SDS011;59602;52.142;5.408;2022-11-23T09:29:56;7.43;;;0.50;;
71763;SDS011;59602;52.142;5.408;2022-11-23T09:32:23;6.72;;;0.30;;
71763;SDS011;59602;52.142;5.408;2022-11-23T09:34:49;5.72;;;0.40;;
71763;SDS011;59602;52.142;5.408;2022-11-23T09:37:16;6.50;;;0.35;;
71763;SDS011;59602;52.142;5.408;2022-11-23T09:39:42;11.20;;;0.80;;
71763;SDS011;59602;52.142;5.408;2022-11-23T09:42:15;6.17;;;0.50;;
71763;SDS011;59602;52.142;5.408;2022-11-23T09:47:24;5.70;;;0.40;;
71763;SDS011;59602;52.142;5.408;2022-11-23T09:50:02;7.00;;;0.45;;
71763;SDS011;59602;52.142;5.408;2022-11-23T09:52:35;5.10;;;0.80;;
71763;SDS011;59602;52.142;5.408;2022-11-23T09:55:09;6.00;;;0.63;;
71763;SDS011;59602;52.142;5.408;2022-11-23T09:57:44;5.68;;;0.30;;
71763;SDS011;59602;52.142;5.408;2022-11-23T10:00:15;7.88;;;0.40;;
71763;SDS011;59602;52.142;5.408;2022-11-23T10:02:42;5.22;;;0.50;;
71763;SDS011;59602;52.142;5.408;2022-11-23T10:05:13;7.13;;;0.30;;
71763;SDS011;59602;52.142;5.408;2022-11-23T10:15:37;3.05;;;0.47;;
71763;SDS011;59602;52.142;5.408;2022-11-23T10:18:19;5.95;;;0.50;;
71763;SDS011;59602;52.142;5.408;2022-11-23T10:24:58;5.15;;;0.30;;
71763;SDS011;59602;52.142;5.408;2022-11-23T10:27:33;7.15;;;0.40;;
71763;SDS011;59602;52.142;5.408;2022-11-23T10:29:59;5.32;;;0.55;;
71763;SDS011;59602;52.142;5.408;2022-11-23T10:32:29;7.75;;;0.52;;
71763;SDS011;59602;52.142;5.408;2022-11-23T10:35:04;12.10;;;0.60;;
71763;SDS011;59602;52.142;5.408;2022-11-23T10:37:37;4.85;;;0.30;;
71763;SDS011;59602;52.142;5.408;2022-11-23T10:40:16;6.40;;;0.47;;
71763;SDS011;59602;52.142;5.408;2022-11-23T10:42:48;4.65;;;0.40;;
71763;SDS011;59602;52.142;5.408;2022-11-23T10:45:19;5.03;;;0.65;;
71763;SDS011;59602;52.142;5.408;2022-11-23T10:47:50;8.90;;;0.60;;
71763;SDS011;59602;52.142;5.408;2022-11-23T10:50:21;7.63;;;0.70;;
71763;SDS011;59602;52.142;5.408;2022-11-23T10:53:29;4.97;;;0.90;;
71763;SDS011;59602;52.142;5.408;2022-11-23T10:56:00;5.30;;;0.30;;
71763;SDS011;59602;52.142;5.408;2022-11-23T10:59:27;5.32;;;0.30;;
71763;SDS011;59602;52.142;5.408;2022-11-23T11:02:45;4.30;;;0.50;;
71763;SDS011;59602;52.142;5.408;2022-11-23T11:05:56;6.13;;;0.38;;
71763;SDS011;59602;52.142;5.408;2022-11-23T11:12:31;5.55;;;0.30;;
71763;SDS011;59602;52.142;5.408;2022-11-23T11:15:49;7.05;;;0.40;;
71763;SDS011;59602;52.142;5.408;2022-11-23T11:18:41;7.17;;;0.60;;
71763;SDS011;59602;52.142;5.408;2022-11-23T11:21:43;7.18;;;0.30;;
71763;SDS011;59602;52.142;5.408;2022-11-23T11:24:14;6.95;;;0.50;;
71763;SDS011;59602;52.142;5.408;2022-11-23T11:26:50;5.20;;;0.30;;
71763;SDS011;59602;52.142;5.408;2022-11-23T11:29:25;5.30;;;0.30;;
71763;SDS011;59602;52.142;5.408;2022-11-23T11:32:05;4.17;;;0.40;;
71763;SDS011;59602;52.142;5.408;2022-11-23T11:34:40;4.75;;;0.30;;
71763;SDS011;59602;52.142;5.408;2022-11-23T11:39:54;6.72;;;0.50;;
71763;SDS011;59602;52.142;5.408;2022-11-23T11:42:30;4.68;;;0.40;;
71763;SDS011;59602;52.142;5.408;2022-11-23T11:45:00;3.50;;;0.30;;
71763;SDS011;59602;52.142;5.408;2022-11-23T11:47:31;7.65;;;0.70;;
71763;SDS011;59602;52.142;5.408;2022-11-23T11:50:09;4.55;;;0.55;;
71763;SDS011;59602;52.142;5.408;2022-11-23T11:52:46;4.38;;;0.60;;
71763;SDS011;59602;52.142;5.408;2022-11-23T11:55:20;6.90;;;0.80;;
71763;SDS011;59602;52.142;5.408;2022-11-23T11:57:51;6.47;;;0.50;;
71763;SDS011;59602;52.142;5.408;2022-11-23T12:00:25;3.25;;;0.50;;
71763;SDS011;59602;52.142;5.408;2022-11-23T12:03:05;3.85;;;0.40;;
71763;SDS011;59602;52.142;5.408;2022-11-23T12:05:47;7.38;;;0.55;;
71763;SDS011;59602;52.142;5.408;2022-11-23T12:08:22;5.00;;;0.40;;
71763;SDS011;59602;52.142;5.408;2022-11-23T12:10:56;6.37;;;0.70;;
71763;SDS011;59602;52.142;5.408;2022-11-23T12:13:31;2.65;;;0.20;;
71763;SDS011;59602;52.142;5.408;2022-11-23T12:19:12;3.22;;;0.20;;
71763;SDS011;59602;52.142;5.408;2022-11-23T12:27:32;4.05;;;0.20;;
71763;SDS011;59602;52.142;5.408;2022-11-23T12:30:19;3.55;;;0.30;;
71763;SDS011;59602;52.142;5.408;2022-11-23T12:32:53;5.30;;;0.20;;
71763;SDS011;59602;52.142;5.408;2022-11-23T12:35:41;2.45;;;0.20;;
71763;SDS011;59602;52.142;5.408;2022-11-23T12:38:25;4.23;;;0.30;;
71763;SDS011;59602;52.142;5.408;2022-11-23T12:46:26;4.97;;;0.20;;
71763;SDS011;59602;52.142;5.408;2022-11-23T12:49:07;2.38;;;0.43;;
71763;SDS011;59602;52.142;5.408;2022-11-23T12:57:16;2.67;;;0.20;;
71763;SDS011;59602;52.142;5.408;2022-11-23T13:02:29;4.00;;;0.50;;
71763;SDS011;59602;52.142;5.408;2022-11-23T13:08:09;4.60;;;0.35;;
71763;SDS011;59602;52.142;5.408;2022-11-23T13:10:42;6.68;;;0.30;;
71763;SDS011;59602;52.142;5.408;2022-11-23T13:16:19;2.88;;;0.25;;
71763;SDS011;59602;52.142;5.408;2022-11-23T13:22:13;3.92;;;0.20;;
71763;SDS011;59602;52.142;5.408;2022-11-23T13:25:36;1.85;;;0.20;;
71763;SDS011;59602;52.142;5.408;2022-11-23T13:28:03;2.25;;;0.20;;
71763;SDS011;59602;52.142;5.408;2022-11-23T13:31:16;4.10;;;0.55;;
71763;SDS011;59602;52.142;5.408;2022-11-23T13:33:42;3.70;;;0.20;;
71763;SDS011;59602;52.142;5.408;2022-11-23T13:36:12;1.55;;;0.30;;
71763;SDS011;59602;52.142;5.408;2022-11-23T13:42:10;3.40;;;0.10;;
71763;SDS011;59602;52.142;5.408;2022-11-23T13:44:38;3.50;;;0.20;;
71763;SDS011;59602;52.142;5.408;2022-11-23T13:49:33;3.97;;;0.50;;
71763;SDS011;59602;52.142;5.408;2022-11-23T13:52:19;2.97;;;0.50;;
71763;SDS011;59602;52.142;5.408;2022-11-23T13:55:08;4.10;;;0.50;;
71763;SDS011;59602;52.142;5.408;2022-11-23T13:58:31;2.47;;;0.40;;
71763;SDS011;59602;52.142;5.408;2022-11-23T14:00:51;3.43;;;0.40;;
71763;SDS011;59602;52.142;5.408;2022-11-23T14:06:16;2.83;;;0.50;;
71763;SDS011;59602;52.142;5.408;2022-11-23T14:08:50;9.75;;;3.78;;
71763;SDS011;59602;52.142;5.408;2022-11-23T14:11:24;3.80;;;0.70;;
71763;SDS011;59602;52.142;5.408;2022-11-23T14:13:53;2.57;;;0.30;;
71763;SDS011;59602;52.142;5.408;2022-11-23T14:16:33;5.75;;;0.22;;
71763;SDS011;59602;52.142;5.408;2022-11-23T14:19:22;3.63;;;0.30;;
71763;SDS011;59602;52.142;5.408;2022-11-23T14:25:12;3.55;;;0.20;;
71763;SDS011;59602;52.142;5.408;2022-11-23T14:27:58;2.07;;;0.20;;
71763;SDS011;59602;52.142;5.408;2022-11-23T14:33:23;4.20;;;0.20;;
71763;SDS011;59602;52.142;5.408;2022-11-23T14:38:55;5.32;;;0.40;;
71763;SDS011;59602;52.142;5.408;2022-11-23T15:00:21;3.10;;;0.50;;
71763;SDS011;59602;52.142;5.408;2022-11-23T15:02:52;4.45;;;0.20;;
71763;SDS011;59602;52.142;5.408;2022-11-23T15:06:06;3.90;;;0.28;;
71763;SDS011;59602;52.142;5.408;2022-11-23T15:08:40;3.05;;;0.20;;
71763;SDS011;59602;52.142;5.408;2022-11-23T15:11:13;2.15;;;0.20;;
71763;SDS011;59602;52.142;5.408;2022-11-23T15:13:48;2.67;;;0.20;;
71763;SDS011;59602;52.142;5.408;2022-11-23T15:16:18;2.45;;;0.30;;
71763;SDS011;59602;52.142;5.408;2022-11-23T15:18:45;2.17;;;0.30;;
71763;SDS011;59602;52.142;5.408;2022-11-23T15:25:29;1.20;;;0.10;;
71763;SDS011;59602;52.142;5.408;2022-11-23T15:27:56;2.73;;;0.20;;
71763;SDS011;59602;52.142;5.408;2022-11-23T15:30:45;3.60;;;0.30;;
71763;SDS011;59602;52.142;5.408;2022-11-23T15:46:59;4.47;;;0.20;;
71763;SDS011;59602;52.142;5.408;2022-11-23T15:49:28;3.20;;;0.60;;
71763;SDS011;59602;52.142;5.408;2022-11-23T15:51:59;4.43;;;0.22;;
71763;SDS011;59602;52.142;5.408;2022-11-23T15:54:30;1.80;;;0.20;;
71763;SDS011;59602;52.142;5.408;2022-11-23T15:57:01;2.60;;;0.30;;
71763;SDS011;59602;52.142;5.408;2022-11-23T15:59:43;4.40;;;0.43;;
71763;SDS011;59602;52.142;5.408;2022-11-23T16:02:14;1.98;;;0.30;;
71763;SDS011;59602;52.142;5.408;2022-11-23T16:04:43;2.78;;;0.30;;
71763;SDS011;59602;52.142;5.408;2022-11-23T16:07:15;4.28;;;0.30;;
71763;SDS011;59602;52.142;5.408;2022-11-23T16:09:46;1.67;;;0.20;;
71763;SDS011;59602;52.142;5.408;2022-11-23T16:12:19;3.80;;;0.22;;
71763;SDS011;59602;52.142;5.408;2022-11-23T16:14:49;2.13;;;0.30;;
71763;SDS011;59602;52.142;5.408;2022-11-23T16:17:18;2.83;;;0.20;;
71763;SDS011;59602;52.142;5.408;2022-11-23T16:19:53;1.80;;;0.20;;
71763;SDS011;59602;52.142;5.408;2022-11-23T16:22:24;4.17;;;0.30;;
71763;SDS011;59602;52.142;5.408;2022-11-23T16:24:58;2.47;;;0.50;;
71763;SDS011;59602;52.142;5.408;2022-11-23T16:27:29;3.45;;;0.77;;
71763;SDS011;59602;52.142;5.408;2022-11-23T16:29:56;3.63;;;0.70;;
71763;SDS011;59602;52.142;5.408;2022-11-23T16:32:29;2.17;;;0.50;;
71763;SDS011;59602;52.142;5.408;2022-11-23T16:34:57;1.87;;;0.47;;
71763;SDS011;59602;52.142;5.408;2022-11-23T16:37:40;3.67;;;0.70;;
71763;SDS011;59602;52.142;5.408;2022-11-23T16:40:07;2.42;;;0.47;;
71763;SDS011;59602;52.142;5.408;2022-11-23T16:42:34;3.75;;;0.52;;
71763;SDS011;59602;52.142;5.408;2022-11-23T16:45:01;4.35;;;0.70;;
71763;SDS011;59602;52.142;5.408;2022-11-23T16:47:28;2.93;;;0.80;;
71763;SDS011;59602;52.142;5.408;2022-11-23T16:49:55;3.28;;;0.68;;
71763;SDS011;59602;52.142;5.408;2022-11-23T16:52:22;3.20;;;0.60;;
71763;SDS011;59602;52.142;5.408;2022-11-23T16:54:49;4.05;;;0.70;;
71763;SDS011;59602;52.142;5.408;2022-11-23T17:00:00;2.67;;;0.87;;
71763;SDS011;59602;52.142;5.408;2022-11-23T17:02:29;5.03;;;0.85;;
71763;SDS011;59602;52.142;5.408;2022-11-23T17:04:56;2.35;;;0.70;;
71763;SDS011;59602;52.142;5.408;2022-11-23T17:07:23;3.58;;;1.00;;
71763;SDS011;59602;52.142;5.408;2022-11-23T17:09:50;2.15;;;1.05;;
71763;SDS011;59602;52.142;5.408;2022-11-23T17:12:17;4.37;;;0.70;;
71763;SDS011;59602;52.142;5.408;2022-11-23T17:14:46;3.50;;;0.95;;
71763;SDS011;59602;52.142;5.408;2022-11-23T17:17:20;2.45;;;0.98;;
71763;SDS011;59602;52.142;5.408;2022-11-23T17:19:48;3.03;;;1.00;;
71763;SDS011;59602;52.142;5.408;2022-11-23T17:22:16;4.90;;;1.15;;
71763;SDS011;59602;52.142;5.408;2022-11-23T17:24:44;3.13;;;1.10;;
71763;SDS011;59602;52.142;5.408;2022-11-23T17:27:14;2.55;;;1.20;;
71763;SDS011;59602;52.142;5.408;2022-11-23T17:29:44;3.10;;;1.10;;
71763;SDS011;59602;52.142;5.408;2022-11-23T17:32:12;3.58;;;1.20;;
71763;SDS011;59602;52.142;5.408;2022-11-23T17:34:39;3.00;;;1.38;;
71763;SDS011;59602;52.142;5.408;2022-11-23T17:37:10;3.53;;;1.50;;
71763;SDS011;59602;52.142;5.408;2022-11-23T17:39:42;3.60;;;1.35;;
71763;SDS011;59602;52.142;5.408;2022-11-23T17:42:09;3.55;;;1.40;;
71763;SDS011;59602;52.142;5.408;2022-11-23T17:44:37;4.50;;;1.50;;
71763;SDS011;59602;52.142;5.408;2022-11-23T17:47:04;2.83;;;1.80;;
71763;SDS011;59602;52.142;5.408;2022-11-23T17:49:32;5.70;;;1.80;;
71763;SDS011;59602;52.142;5.408;2022-11-23T17:51:59;4.30;;;1.65;;
71763;SDS011;59602;52.142;5.408;2022-11-23T17:54:26;3.28;;;1.88;;
71763;SDS011;59602;52.142;5.408;2022-11-23T17:56:52;4.85;;;2.20;;
71763;SDS011;59602;52.142;5.408;2022-11-23T17:59:19;4.75;;;2.10;;
71763;SDS011;59602;52.142;5.408;2022-11-23T18:01:45;4.60;;;1.77;;
71763;SDS011;59602;52.142;5.408;2022-11-23T18:04:12;5.85;;;2.20;;
71763;SDS011;59602;52.142;5.408;2022-11-23T18:06:39;4.25;;;2.38;;
71763;SDS011;59602;52.142;5.408;2022-11-23T18:09:07;6.70;;;3.47;;
71763;SDS011;59602;52.142;5.408;2022-11-23T18:11:34;5.00;;;2.47;;
71763;SDS011;59602;52.142;5.408;2022-11-23T18:14:01;8.20;;;5.20;;
71763;SDS011;59602;52.142;5.408;2022-11-23T18:16:28;5.78;;;3.42;;
71763;SDS011;59602;52.142;5.408;2022-11-23T18:18:55;5.88;;;3.28;;
71763;SDS011;59602;52.142;5.408;2022-11-23T18:21:21;5.88;;;3.42;;
71763;SDS011;59602;52.142;5.408;2022-11-23T18:23:48;5.32;;;2.90;;
71763;SDS011;59602;52.142;5.408;2022-11-23T18:26:16;5.80;;;2.83;;
71763;SDS011;59602;52.142;5.408;2022-11-23T18:28:47;5.25;;;3.47;;
71763;SDS011;59602;52.142;5.408;2022-11-23T18:31:15;5.38;;;3.22;;
71763;SDS011;59602;52.142;5.408;2022-11-23T18:33:41;6.78;;;3.13;;
71763;SDS011;59602;52.142;5.408;2022-11-23T18:36:08;6.38;;;3.38;;
71763;SDS011;59602;52.142;5.408;2022-11-23T18:38:36;4.87;;;3.20;;
71763;SDS011;59602;52.142;5.408;2022-11-23T18:41:03;5.57;;;3.20;;
71763;SDS011;59602;52.142;5.408;2022-11-23T18:43:30;6.80;;;3.20;;
71763;SDS011;59602;52.142;5.408;2022-11-23T18:45:57;6.10;;;3.22;;